Time;durP1;ratioP1;P1;durP2;ratioP2;P2;SDS_P1;SDS_P2;PMS_P1;PMS_P2;Temp;Humidity;BMP_temperature;BMP_pressure;BME280_temperature;BME280_humidity;BME280_pressure;Samples;Min_cycle;Max_cycle;Signal;HPM_P1;HPM_P2
2023/09/16 00:02:09;;;;;;;6.20;4.60;;;14.60;99.90;;;;;;5215850;28;20044;-66
2023/09/16 00:04:41;;;;;;;5.22;4.07;;;14.50;99.90;;;;;;5202942;28;20032;-65
2023/09/16 00:07:17;;;;;;;4.90;3.85;;;14.50;99.90;;;;;;5203182;28;20043;-65
2023/09/16 00:09:51;;;;;;;5.88;4.22;;;14.50;99.90;;;;;;5229957;28;20044;-66
2023/09/16 00:12:28;;;;;;;6.40;4.05;;;14.40;99.90;;;;;;5246249;28;20027;-66
2023/09/16 00:15:00;;;;;;;5.28;4.18;;;14.50;99.90;;;;;;5229519;28;20412;-66
2023/09/16 00:17:31;;;;;;;4.65;4.00;;;14.40;99.90;;;;;;5241096;28;20035;-64
2023/09/16 00:20:15;;;;;;;4.85;3.85;;;14.30;99.90;;;;;;5204037;28;20031;-65
2023/09/16 00:22:51;;;;;;;5.65;4.03;;;14.40;99.90;;;;;;5223085;28;20471;-67
2023/09/16 00:25:22;;;;;;;5.78;4.13;;;14.30;99.90;;;;;;5209964;28;20368;-64
2023/09/16 00:27:56;;;;;;;4.10;3.40;;;14.30;99.90;;;;;;5224130;28;20035;-66
2023/09/16 00:30:28;;;;;;;6.05;4.22;;;14.20;99.90;;;;;;5206166;28;20036;-61
2023/09/16 00:33:00;;;;;;;7.00;3.63;;;14.20;99.90;;;;;;5206138;28;20032;-63
2023/09/16 00:35:32;;;;;;;4.55;3.45;;;14.20;99.90;;;;;;5208645;28;20040;-69
2023/09/16 00:38:03;;;;;;;4.65;3.70;;;14.20;99.90;;;;;;5244247;28;20029;-62
2023/09/16 00:40:35;;;;;;;5.40;4.05;;;14.20;99.90;;;;;;5248820;28;20038;-61
2023/09/16 00:43:06;;;;;;;5.22;3.85;;;14.20;99.90;;;;;;5209538;28;20040;-68
2023/09/16 00:45:41;;;;;;;5.60;4.22;;;14.20;99.90;;;;;;5207526;28;20040;-67
2023/09/16 00:48:16;;;;;;;5.93;3.90;;;14.30;99.90;;;;;;5225962;28;20089;-62
2023/09/16 00:50:47;;;;;;;5.40;4.20;;;14.30;99.90;;;;;;5220512;28;20037;-65
2023/09/16 00:53:22;;;;;;;5.20;4.70;;;14.30;99.90;;;;;;5216278;28;20047;-68
2023/09/16 00:55:56;;;;;;;5.95;4.57;;;14.40;99.90;;;;;;5242748;28;20208;-66
2023/09/16 00:58:32;;;;;;;5.82;4.53;;;14.30;99.90;;;;;;5198552;28;20300;-65
2023/09/16 01:01:05;;;;;;;7.97;4.68;;;14.30;99.90;;;;;;5232369;22;20028;-94
2023/09/16 01:03:37;;;;;;;7.95;4.45;;;14.30;99.90;;;;;;5242175;28;20029;-94
2023/09/16 01:06:16;;;;;;;5.55;4.90;;;14.20;99.90;;;;;;5243275;28;20033;-94
2023/09/16 01:08:50;;;;;;;4.97;4.15;;;14.10;99.90;;;;;;5243299;28;20051;-96
2023/09/16 01:11:24;;;;;;;6.55;4.95;;;14.10;99.90;;;;;;5243210;28;20031;-95
2023/09/16 01:13:56;;;;;;;6.57;4.82;;;14.10;99.90;;;;;;5243277;28;20025;-92
2023/09/16 01:16:40;;;;;;;5.85;4.93;;;14.10;99.90;;;;;;5259980;28;20046;-95
2023/09/16 01:19:25;;;;;;;7.72;5.03;;;14.10;99.90;;;;;;5243284;28;20025;-94
2023/09/16 01:22:00;;;;;;;8.52;5.55;;;14.10;99.90;;;;;;5243032;28;20028;-93
2023/09/16 01:24:32;;;;;;;7.60;5.68;;;14.00;99.90;;;;;;5242387;28;20233;-93
2023/09/16 01:27:03;;;;;;;8.45;4.80;;;13.90;99.90;;;;;;5243064;28;20025;-93
2023/09/16 01:29:35;;;;;;;6.45;4.82;;;13.90;99.90;;;;;;5242620;28;20041;-93
2023/09/16 01:32:10;;;;;;;8.88;5.13;;;13.90;99.90;;;;;;5242264;28;20020;-93
2023/09/16 01:34:49;;;;;;;6.00;4.80;;;13.90;99.90;;;;;;5242183;28;20040;-94
2023/09/16 01:37:25;;;;;;;7.78;5.07;;;13.90;99.90;;;;;;5233752;28;20217;-93
2023/09/16 01:39:59;;;;;;;5.88;4.50;;;13.90;99.90;;;;;;5230786;28;20199;-93
2023/09/16 01:42:33;;;;;;;10.82;4.90;;;13.80;99.90;;;;;;5236361;28;20020;-93
2023/09/16 01:45:05;;;;;;;6.05;4.97;;;13.70;99.90;;;;;;5241249;28;20025;-92
2023/09/16 01:47:39;;;;;;;7.25;5.32;;;13.80;99.90;;;;;;5230949;28;20028;-96
2023/09/16 01:53:41;;;;;;;7.47;5.72;;;13.70;99.90;;;;;;5261582;28;20025;-95
2023/09/16 01:56:13;;;;;;;10.32;5.88;;;13.70;99.90;;;;;;5229166;28;20029;-96
2023/09/16 01:58:50;;;;;;;10.38;6.25;;;13.70;99.90;;;;;;5228409;28;20337;-94
2023/09/16 02:01:21;;;;;;;6.03;5.13;;;13.70;99.90;;;;;;5228064;28;20225;-93
2023/09/16 02:04:13;;;;;;;6.70;5.38;;;13.80;99.90;;;;;;5254625;28;20356;-94
2023/09/16 02:06:46;;;;;;;8.13;6.20;;;13.80;99.90;;;;;;5228049;28;20028;-94
2023/09/16 02:09:18;;;;;;;8.00;5.45;;;13.80;99.90;;;;;;5227319;28;20028;-93
2023/09/16 02:11:49;;;;;;;13.68;5.75;;;13.80;99.90;;;;;;5228119;28;20028;-94
2023/09/16 02:14:22;;;;;;;7.60;5.68;;;13.80;99.90;;;;;;5227753;28;20028;-93
2023/09/16 02:16:53;;;;;;;6.32;5.32;;;13.80;99.90;;;;;;5228611;28;20035;-93
2023/09/16 02:19:28;;;;;;;7.70;5.30;;;13.80;99.90;;;;;;5227269;28;20029;-94
2023/09/16 02:22:02;;;;;;;6.75;5.05;;;13.70;99.90;;;;;;5227556;28;20028;-94
2023/09/16 02:24:34;;;;;;;6.87;5.03;;;13.70;99.90;;;;;;5227149;28;20032;-94
2023/09/16 02:27:05;;;;;;;8.30;6.25;;;13.70;99.90;;;;;;5227264;28;20028;-94
2023/09/16 02:29:39;;;;;;;9.65;5.97;;;13.70;99.90;;;;;;5226912;28;20036;-95
2023/09/16 02:32:10;;;;;;;8.10;6.07;;;13.80;99.90;;;;;;5227557;28;20051;-95
2023/09/16 02:34:41;;;;;;;7.00;5.18;;;13.90;99.90;;;;;;5226820;28;20024;-95
2023/09/16 02:37:13;;;;;;;8.30;5.85;;;13.90;99.90;;;;;;5226678;28;20028;-95
2023/09/16 02:39:50;;;;;;;8.90;5.88;;;13.90;99.90;;;;;;5228163;28;20111;-93
2023/09/16 02:42:23;;;;;;;12.55;6.15;;;13.80;99.90;;;;;;5226515;28;20032;-93
2023/09/16 02:44:55;;;;;;;9.90;5.78;;;13.80;99.90;;;;;;5227131;28;20031;-94
2023/09/16 02:47:26;;;;;;;8.52;5.85;;;13.80;99.90;;;;;;5227131;28;20038;-93
2023/09/16 02:49:58;;;;;;;8.82;6.15;;;13.80;99.90;;;;;;5209797;28;20038;-93
2023/09/16 02:52:31;;;;;;;8.25;6.18;;;13.70;99.90;;;;;;5227531;28;20035;-95
2023/09/16 02:58:49;;;;;;;7.40;5.32;;;13.70;99.90;;;;;;5259538;28;20031;-95
2023/09/16 03:01:24;;;;;;;7.78;5.95;;;13.70;99.90;;;;;;5226438;28;20028;-95
2023/09/16 03:03:55;;;;;;;;;;;13.70;99.90;;;;;;5227619;28;20025;-96
2023/09/16 03:09:57;;;;;;;9.70;5.68;;;13.60;99.90;;;;;;5259525;28;20024;-93
2023/09/16 03:12:28;;;;;;;8.02;5.93;;;13.50;99.90;;;;;;5226156;28;20032;-95
2023/09/16 03:14:59;;;;;;;7.53;5.75;;;13.50;99.90;;;;;;5226006;28;20025;-93
2023/09/16 03:17:30;;;;;;;8.25;5.85;;;13.50;99.90;;;;;;5226994;28;20029;-95
2023/09/16 03:20:02;;;;;;;9.70;5.63;;;13.50;99.90;;;;;;5227227;28;20029;-95
2023/09/16 03:22:33;;;;;;;12.02;6.25;;;13.50;99.90;;;;;;5226199;28;20028;-94
2023/09/16 03:28:32;;;;;;;7.72;5.68;;;13.50;99.90;;;;;;5259672;28;20032;-94
2023/09/16 03:31:06;;;;;;;8.88;5.88;;;13.50;99.90;;;;;;5225704;28;20028;-93
2023/09/16 03:33:38;;;;;;;7.97;5.65;;;13.40;99.90;;;;;;5226107;28;20042;-94
2023/09/16 03:36:09;;;;;;;8.68;5.25;;;13.30;99.90;;;;;;5225697;28;20030;-95
2023/09/16 03:38:49;;;;;;;7.53;5.60;;;13.30;99.90;;;;;;5209701;28;20032;-94
2023/09/16 03:41:21;;;;;;;8.93;5.85;;;13.30;99.90;;;;;;5225783;28;20028;-94
2023/09/16 03:43:53;;;;;;;9.10;5.75;;;13.30;99.90;;;;;;5225573;28;20034;-94
2023/09/16 03:46:27;;;;;;;7.85;5.60;;;13.20;99.90;;;;;;5225884;28;20024;-94
2023/09/16 03:48:58;;;;;;;10.68;6.30;;;13.20;99.90;;;;;;5225483;28;20036;-95
2023/09/16 03:51:29;;;;;;;8.48;5.00;;;13.20;99.90;;;;;;5225973;28;20025;-95
2023/09/16 03:54:01;;;;;;;9.57;5.68;;;13.10;99.90;;;;;;5226544;28;20029;-94
2023/09/16 03:56:36;;;;;;;13.52;7.10;;;13.10;99.90;;;;;;5225553;28;20028;-94
2023/09/16 03:59:11;;;;;;;7.72;6.43;;;13.10;99.90;;;;;;5225692;28;20035;-94
2023/09/16 04:01:47;;;;;;;8.80;5.72;;;13.00;99.90;;;;;;5225587;28;20032;-94
2023/09/16 04:04:18;;;;;;;8.00;5.80;;;13.00;99.90;;;;;;5227327;28;20025;-95
2023/09/16 04:06:50;;;;;;;7.88;5.68;;;13.00;99.90;;;;;;5226458;28;20024;-93
2023/09/16 04:09:21;;;;;;;11.57;7.93;;;12.90;99.90;;;;;;5225356;28;20047;-94
2023/09/16 04:11:55;;;;;;;9.13;6.53;;;13.00;99.90;;;;;;5225732;28;20348;-94
2023/09/16 04:14:27;;;;;;;9.50;7.47;;;12.90;99.90;;;;;;5225564;28;20040;-95
2023/09/16 04:16:58;;;;;;;12.07;8.00;;;13.00;99.90;;;;;;5209555;28;20045;-96
2023/09/16 04:19:29;;;;;;;9.68;6.32;;;12.90;99.90;;;;;;5225498;28;20029;-94
2023/09/16 04:22:00;;;;;;;10.07;6.57;;;12.90;99.90;;;;;;5225482;28;20028;-94
2023/09/16 04:24:32;;;;;;;12.63;7.50;;;13.00;99.90;;;;;;5232062;28;20032;-95
2023/09/16 04:27:05;;;;;;;10.98;6.70;;;12.90;99.90;;;;;;5237582;28;20047;-94
2023/09/16 04:29:36;;;;;;;11.18;6.57;;;12.90;99.90;;;;;;5221706;28;20044;-95
2023/09/16 04:32:07;;;;;;;9.82;6.22;;;12.80;99.90;;;;;;5227383;28;20035;-95
2023/09/16 04:34:39;;;;;;;8.65;6.22;;;12.80;99.90;;;;;;5225882;28;20031;-95
2023/09/16 04:37:12;;;;;;;10.20;6.57;;;12.80;99.90;;;;;;5225816;28;20057;-95
2023/09/16 04:39:44;;;;;;;8.43;6.32;;;12.80;99.90;;;;;;5227163;28;20315;-94
2023/09/16 04:42:16;;;;;;;9.38;6.75;;;12.90;99.90;;;;;;5229238;28;20299;-95
2023/09/16 04:44:49;;;;;;;8.25;5.75;;;12.90;99.90;;;;;;5226800;28;20039;-96
2023/09/16 04:47:23;;;;;;;8.32;6.50;;;12.90;99.90;;;;;;5226541;28;20032;-93
2023/09/16 04:49:56;;;;;;;9.15;5.82;;;12.90;99.90;;;;;;5228993;28;20024;-93
2023/09/16 04:52:27;;;;;;;10.77;6.53;;;12.90;99.90;;;;;;5227847;28;20028;-93
2023/09/16 04:55:01;;;;;;;10.20;6.93;;;13.00;99.90;;;;;;5227716;28;20033;-94
2023/09/16 04:57:34;;;;;;;8.15;5.95;;;13.00;99.90;;;;;;5230058;28;20028;-95
2023/09/16 05:00:11;;;;;;;9.60;6.15;;;13.10;99.90;;;;;;5233594;28;20024;-94
2023/09/16 05:02:43;;;;;;;9.27;5.90;;;13.30;99.90;;;;;;5232344;28;20042;-95
2023/09/16 05:08:42;;;;;;;9.80;5.82;;;13.50;99.90;;;;;;5262209;28;20035;-93
2023/09/16 05:11:14;;;;;;;10.43;6.30;;;13.70;99.90;;;;;;5228843;28;20033;-93
2023/09/16 05:13:45;;;;;;;8.77;5.68;;;13.80;99.90;;;;;;5213421;28;20038;-95
2023/09/16 05:16:16;;;;;;;10.57;6.78;;;14.00;99.90;;;;;;5229505;28;20031;-94
2023/09/16 05:18:48;;;;;;;9.23;6.40;;;14.10;99.90;;;;;;5228843;28;20035;-93
2023/09/16 05:21:19;;;;;;;9.40;5.68;;;14.20;99.90;;;;;;5228843;28;20032;-94
2023/09/16 05:23:54;;;;;;;10.32;5.75;;;14.40;99.90;;;;;;5215870;28;20036;-95
2023/09/16 05:26:30;;;;;;;;;;;14.60;99.90;;;;;;5228944;28;20054;-94
2023/09/16 05:29:02;;;;;;;7.75;5.45;;;14.80;99.90;;;;;;5245020;28;19901;-95
2023/09/16 05:31:33;;;;;;;7.85;5.72;;;15.00;99.90;;;;;;5228772;28;20032;-93
2023/09/16 05:34:05;;;;;;;7.53;5.70;;;15.20;99.90;;;;;;5230028;28;20025;-94
2023/09/16 05:36:36;;;;;;;13.98;5.13;;;15.40;99.90;;;;;;5230786;28;20218;-94
2023/09/16 05:39:07;;;;;;;10.15;5.72;;;15.50;99.90;;;;;;5230538;28;20039;-94
2023/09/16 05:41:38;;;;;;;8.02;6.18;;;15.70;99.90;;;;;;5230784;28;20033;-93
2023/09/16 05:44:15;;;;;;;8.93;5.40;;;15.90;99.90;;;;;;5230953;28;20032;-93
2023/09/16 05:46:47;;;;;;;7.82;5.32;;;16.10;99.90;;;;;;5230505;28;20039;-93
2023/09/16 05:49:21;;;;;;;6.93;4.70;;;16.30;99.90;;;;;;5230247;28;20054;-95
2023/09/16 05:51:55;;;;;;;6.35;4.63;;;16.40;99.90;;;;;;5230389;28;20249;-95
2023/09/16 05:54:29;;;;;;;8.10;5.63;;;16.70;99.90;;;;;;5229912;28;20034;-92
2023/09/16 05:57:01;;;;;;;6.43;5.10;;;16.90;99.90;;;;;;5229708;28;20028;-93
2023/09/16 05:59:32;;;;;;;7.70;4.40;;;17.00;99.90;;;;;;5230261;28;20031;-93
2023/09/16 06:02:08;;;;;;;5.68;4.32;;;17.30;99.90;;;;;;5236712;28;20046;-93
2023/09/16 06:04:39;;;;;;;5.50;4.30;;;17.50;97.40;;;;;;5257510;28;20033;-92
2023/09/16 06:07:10;;;;;;;5.47;4.60;;;17.60;17.20;;;;;;5241550;28;20051;-93
2023/09/16 06:09:42;;;;;;;7.00;4.50;;;17.70;1.00;;;;;;5241447;28;20031;-93
2023/09/16 06:12:13;;;;;;;5.90;4.40;;;17.90;1.00;;;;;;5241616;28;20047;-93
2023/09/16 06:14:56;;;;;;;6.22;5.03;;;17.90;1.00;;;;;;5242091;28;20024;-92
2023/09/16 06:17:28;;;;;;;6.10;5.10;;;18.00;1.00;;;;;;5242030;28;20028;-93
2023/09/16 06:19:59;;;;;;;5.25;3.72;;;17.80;1.00;;;;;;5242039;28;20035;-93
2023/09/16 06:22:30;;;;;;;7.50;4.15;;;17.80;1.00;;;;;;5242012;28;20036;-93
2023/09/16 06:25:01;;;;;;;8.15;5.10;;;17.90;1.00;;;;;;5241739;28;20028;-94
2023/09/16 06:27:33;;;;;;;5.28;4.38;;;18.00;1.00;;;;;;5241974;28;20029;-93
2023/09/16 06:30:05;;;;;;;5.15;4.00;;;18.10;1.00;;;;;;5241517;28;20054;-94
2023/09/16 06:32:36;;;;;;;5.53;4.30;;;18.10;1.00;;;;;;5241188;28;20048;-94
2023/09/16 06:35:08;;;;;;;5.95;4.10;;;18.20;1.00;;;;;;5236566;28;20043;-94
2023/09/16 06:37:39;;;;;;;4.80;3.90;;;18.30;1.00;;;;;;5230504;28;20024;-93
2023/09/16 06:40:11;;;;;;;7.03;4.25;;;18.50;1.00;;;;;;5228897;28;20032;-92
2023/09/16 06:42:42;;;;;;;5.03;3.80;;;18.60;1.00;;;;;;5214255;28;20040;-92
2023/09/16 06:45:24;;;;;;;5.60;3.72;;;18.60;1.00;;;;;;5229162;28;20034;-95
2023/09/16 06:47:59;;;;;;;4.80;4.20;;;18.70;1.00;;;;;;5228943;28;20029;-92
2023/09/16 06:50:30;;;;;;;4.60;3.58;;;18.90;1.00;;;;;;5227269;28;20028;-92
2023/09/16 06:53:01;;;;;;;7.35;4.00;;;19.20;1.00;;;;;;5227554;28;20031;-93
2023/09/16 06:55:35;;;;;;;5.97;4.30;;;19.10;1.00;;;;;;5227719;28;20025;-93
2023/09/16 06:58:09;;;;;;;4.15;3.47;;;19.20;1.00;;;;;;5228096;28;20033;-95
2023/09/16 07:00:40;;;;;;;5.22;3.88;;;19.50;1.00;;;;;;5226980;28;20030;-92
2023/09/16 07:03:12;;;;;;;5.82;3.88;;;19.50;99.90;;;;;;5227601;28;20040;-92
2023/09/16 07:05:46;;;;;;;5.07;3.92;;;19.70;99.90;;;;;;5229603;28;20038;-91
2023/09/16 07:08:18;;;;;;;;;;;19.90;99.90;;;;;;5234818;28;20028;-91
2023/09/16 07:10:49;;;;;;;3.88;3.40;;;20.00;99.90;;;;;;5247020;28;20047;-95
2023/09/16 07:13:21;;;;;;;5.97;3.40;;;20.10;99.90;;;;;;5227102;28;20035;-94
2023/09/16 07:15:53;;;;;;;4.40;3.78;;;20.30;38.60;;;;;;5227728;28;20028;-93
2023/09/16 07:18:28;;;;;;;4.40;3.67;;;20.40;10.10;;;;;;5242413;28;20031;-95
2023/09/16 07:20:59;;;;;;;3.53;2.85;;;20.60;1.00;;;;;;5225867;28;20036;-94
2023/09/16 07:23:30;;;;;;;4.43;3.65;;;20.70;1.00;;;;;;5227302;28;20029;-94
2023/09/16 07:26:02;;;;;;;4.03;2.80;;;20.90;1.00;;;;;;5227263;28;20028;-96
2023/09/16 07:28:36;;;;;;;3.53;3.20;;;20.80;1.00;;;;;;5229640;28;20040;-94
2023/09/16 07:31:08;;;;;;;5.00;2.83;;;21.00;1.00;;;;;;5227386;28;20029;-94
2023/09/16 07:33:42;;;;;;;4.65;2.83;;;21.10;1.00;;;;;;5228165;28;20024;-96
2023/09/16 07:36:16;;;;;;;5.22;3.33;;;21.20;1.00;;;;;;5212877;28;20029;-95
2023/09/16 07:38:49;;;;;;;4.43;3.00;;;21.60;99.90;;;;;;5227613;28;20031;-95
2023/09/16 07:41:22;;;;;;;3.38;3.00;;;21.60;95.40;;;;;;5227962;28;20032;-94
2023/09/16 07:43:59;;;;;;;4.28;3.05;;;21.90;99.90;;;;;;5242760;28;20217;-93
2023/09/16 07:46:34;;;;;;;4.38;2.85;;;22.20;1.00;;;;;;5226012;28;20035;-95
2023/09/16 07:49:08;;;;;;;4.05;2.95;;;22.10;1.00;;;;;;5226366;28;20341;-95
2023/09/16 07:51:40;;;;;;;4.65;3.00;;;22.10;1.00;;;;;;5225658;28;20029;-93
2023/09/16 07:54:20;;;;;;;3.55;2.67;;;22.10;1.00;;;;;;5225986;28;20236;-94
2023/09/16 07:56:52;;;;;;;3.25;2.33;;;22.50;1.00;;;;;;5226158;28;20032;-96
2023/09/16 07:59:23;;;;;;;4.85;3.05;;;22.40;1.00;;;;;;5226290;28;20051;-94
2023/09/16 08:01:54;;;;;;;4.25;3.00;;;22.60;1.00;;;;;;5226307;28;20036;-96
2023/09/16 08:04:26;;;;;;;6.90;3.28;;;22.80;1.00;;;;;;5209372;28;20042;-94
2023/09/16 08:06:58;;;;;;;2.85;2.40;;;22.80;1.00;;;;;;5225951;28;20218;-94
2023/09/16 08:09:29;;;;;;;3.05;2.65;;;22.90;1.00;;;;;;5226066;28;20318;-92
2023/09/16 08:12:00;;;;;;;4.38;2.47;;;23.00;1.00;;;;;;5225870;28;20032;-93
2023/09/16 08:14:31;;;;;;;3.03;2.72;;;22.70;99.90;;;;;;5225998;28;20031;-93
2023/09/16 08:17:05;;;;;;;2.80;2.25;;;22.90;99.90;;;;;;5225812;28;20024;-94
2023/09/16 08:19:39;;;;;;;2.50;2.30;;;23.20;99.90;;;;;;5225809;28;20029;-94
2023/09/16 08:22:11;;;;;;;2.60;2.30;;;23.40;99.90;;;;;;5225758;28;20028;-95
2023/09/16 08:24:43;;;;;;;2.70;1.77;;;23.80;1.00;;;;;;5225870;28;20051;-95
2023/09/16 08:27:16;;;;;;;2.40;1.95;;;24.10;99.90;;;;;;5225958;28;20318;-93
2023/09/16 08:29:49;;;;;;;2.70;2.33;;;24.20;99.90;;;;;;5226696;28;20032;-94
2023/09/16 08:32:23;;;;;;;3.00;2.03;;;24.20;1.00;;;;;;5227296;28;20040;-93
2023/09/16 08:34:55;;;;;;;2.10;1.90;;;24.20;99.90;;;;;;5229446;28;20032;-95
2023/09/16 08:37:27;;;;;;;1.88;1.77;;;24.00;99.90;;;;;;5229759;28;20024;-95
2023/09/16 08:39:58;;;;;;;2.95;1.85;;;24.10;99.90;;;;;;5230104;28;20035;-93
2023/09/16 08:42:36;;;;;;;2.10;1.77;;;24.70;96.60;;;;;;5230160;28;20344;-94
2023/09/16 08:48:40;;;;;;;2.13;1.70;;;24.60;55.00;;;;;;5268001;28;20030;-94
2023/09/16 08:51:16;;;;;;;2.22;1.65;;;24.90;76.50;;;;;;5230008;28;20222;-94
2023/09/16 08:53:53;;;;;;;1.92;1.65;;;25.10;1.00;;;;;;5229018;28;20063;-94
2023/09/16 08:56:28;;;;;;;1.80;1.70;;;25.00;99.90;;;;;;5229261;28;20028;-94
2023/09/16 08:59:01;;;;;;;2.55;1.88;;;24.90;99.90;;;;;;5228895;28;20231;-94
2023/09/16 09:01:33;;;;;;;6.97;1.70;;;24.70;97.20;;;;;;5229022;28;20046;-94
2023/09/16 09:04:05;;;;;;;2.30;1.50;;;24.50;99.90;;;;;;5228810;28;20028;-94
2023/09/16 09:06:37;;;;;;;2.95;2.08;;;24.70;99.90;;;;;;5229202;28;20034;-94
2023/09/16 09:09:09;;;;;;;1.98;1.70;;;24.90;99.90;;;;;;5229373;28;20322;-94
2023/09/16 09:11:40;;;;;;;3.05;2.00;;;25.10;27.90;;;;;;5228945;28;20043;-95
2023/09/16 09:14:13;;;;;;;6.43;1.85;;;25.10;99.90;;;;;;5229323;28;20318;-93
2023/09/16 09:16:46;;;;;;;3.40;2.03;;;25.40;99.90;;;;;;5212883;28;20348;-93
2023/09/16 09:19:20;;;;;;;11.15;1.92;;;25.00;1.00;;;;;;5228887;28;20036;-92
2023/09/16 09:21:56;;;;;;;1.80;1.65;;;24.90;1.00;;;;;;5229017;28;20103;-94
2023/09/16 09:24:28;;;;;;;1.95;1.70;;;25.30;1.00;;;;;;5228632;28;20223;-94
2023/09/16 09:27:01;;;;;;;2.00;1.80;;;25.30;1.00;;;;;;5212500;28;20322;-94
2023/09/16 09:29:33;;;;;;;5.90;1.77;;;25.20;1.00;;;;;;5228296;28;20042;-93
2023/09/16 09:32:05;;;;;;;2.13;1.55;;;25.70;1.00;;;;;;5229099;28;20043;-94
2023/09/16 09:34:36;;;;;;;2.42;1.63;;;25.50;1.00;;;;;;5230359;28;20213;-93
2023/09/16 09:37:16;;;;;;;1.98;1.70;;;25.50;1.00;;;;;;5229895;28;20033;-93
2023/09/16 09:40:05;;;;;;;1.45;1.35;;;25.40;1.00;;;;;;5228585;28;20098;-95
2023/09/16 09:42:48;;;;;;;4.10;2.60;;;25.50;1.00;;;;;;5245217;28;20039;-95
2023/09/16 09:45:21;;;;;;;4.45;1.80;;;25.70;1.00;;;;;;5228181;28;20028;-94
2023/09/16 09:47:55;;;;;;;2.97;1.60;;;25.70;1.00;;;;;;5228359;28;20029;-93
2023/09/16 09:50:33;;;;;;;1.88;1.58;;;25.90;1.00;;;;;;5228512;28;20035;-94
2023/09/16 09:53:05;;;;;;;1.85;1.58;;;25.70;1.00;;;;;;5228127;28;20035;-94
2023/09/16 09:55:39;;;;;;;2.05;1.63;;;25.70;1.00;;;;;;5227991;28;20028;-95
2023/09/16 09:58:15;;;;;;;2.78;1.70;;;26.00;1.00;;;;;;5229234;28;20029;-93
2023/09/16 10:00:47;;;;;;;1.73;1.50;;;26.30;1.00;;;;;;5229682;28;20028;-94
2023/09/16 10:03:22;;;;;;;2.50;1.88;;;27.20;1.00;;;;;;5228156;28;20040;-93
2023/09/16 10:05:55;;;;;;;2.40;1.60;;;26.80;99.90;;;;;;5227977;28;20039;-94
2023/09/16 10:08:31;;;;;;;2.42;1.67;;;27.00;21.20;;;;;;5227490;28;20035;-93
2023/09/16 10:11:03;;;;;;;2.00;1.45;;;27.30;99.90;;;;;;5228439;28;20038;-93
2023/09/16 10:13:34;;;;;;;1.58;1.48;;;26.90;1.00;;;;;;5227720;28;20034;-93
2023/09/16 10:16:06;;;;;;;1.77;1.60;;;27.10;1.00;;;;;;5227887;28;20034;-94
2023/09/16 10:18:39;;;;;;;1.63;1.52;;;27.80;1.00;;;;;;5229172;28;20028;-93
2023/09/16 10:21:13;;;;;;;3.20;1.50;;;27.30;1.00;;;;;;5228114;28;20340;-93
2023/09/16 10:23:50;;;;;;;2.90;1.48;;;27.90;1.00;;;;;;5228067;28;20032;-93
2023/09/16 10:26:21;;;;;;;3.88;1.50;;;28.10;1.00;;;;;;5227527;28;20214;-93
2023/09/16 10:28:56;;;;;;;3.70;1.40;;;27.50;1.00;;;;;;5228261;28;20032;-93
2023/09/16 10:31:27;;;;;;;;;;;27.40;99.90;;;;;;5227798;28;20033;-94
2023/09/16 10:33:58;;;;;;;1.55;1.30;;;28.60;1.00;;;;;;5242650;28;19907;-95
2023/09/16 10:36:31;;;;;;;1.85;1.25;;;29.40;99.90;;;;;;5227360;28;20348;-93
2023/09/16 10:39:05;;;;;;;2.33;1.52;;;29.00;99.90;;;;;;5227438;28;20222;-93
2023/09/16 10:41:38;;;;;;;5.55;1.75;;;28.80;99.90;;;;;;5229068;28;20314;-96
2023/09/16 10:44:13;;;;;;;1.38;1.27;;;29.50;99.90;;;;;;5244291;28;20036;-93
2023/09/16 10:46:47;;;;;;;3.00;1.58;;;30.00;1.00;;;;;;5228363;28;20033;-96
2023/09/16 10:49:21;;;;;;;1.98;1.40;;;29.20;1.00;;;;;;5233315;28;20028;-93
2023/09/16 10:51:55;;;;;;;1.40;1.30;;;29.00;99.90;;;;;;5217666;28;20029;-92
2023/09/16 10:54:34;;;;;;;2.25;1.30;;;28.70;99.90;;;;;;5234177;28;20028;-94
2023/09/16 10:57:15;;;;;;;1.55;1.38;;;29.10;99.90;;;;;;5234340;28;20030;-93
2023/09/16 10:59:54;;;;;;;1.90;1.70;;;29.40;99.90;;;;;;5233708;28;20028;-96
2023/09/16 11:02:42;;;;;;;1.30;1.20;;;29.30;99.90;;;;;;5237701;28;20082;-94
2023/09/16 11:08:41;;;;;;;1.17;1.08;;;29.30;99.90;;;;;;5270413;28;20043;-94
2023/09/16 11:11:14;;;;;;;2.15;1.30;;;29.10;26.30;;;;;;5238580;28;20036;-93
2023/09/16 11:13:49;;;;;;;1.30;1.20;;;29.20;78.90;;;;;;5236215;28;20035;-95
2023/09/16 11:16:23;;;;;;;2.08;1.23;;;29.20;1.00;;;;;;5224714;28;20024;-95
2023/09/16 11:18:59;;;;;;;2.88;1.23;;;30.00;24.30;;;;;;5240244;28;20024;-93
2023/09/16 11:21:32;;;;;;;2.00;1.45;;;31.40;97.20;;;;;;5240843;28;20040;-93
2023/09/16 11:24:05;;;;;;;1.40;1.30;;;30.60;1.00;;;;;;5240876;28;20021;-94
2023/09/16 11:26:45;;;;;;;1.20;1.10;;;30.10;99.90;;;;;;5239464;28;20043;-92
2023/09/16 11:29:19;;;;;;;1.77;1.50;;;30.30;99.90;;;;;;5231604;28;20329;-94
2023/09/16 11:31:53;;;;;;;1.25;1.15;;;30.20;99.90;;;;;;5230155;28;20032;-94
2023/09/16 11:34:26;;;;;;;1.63;1.42;;;31.10;28.40;;;;;;5228331;28;20024;-93
2023/09/16 11:37:03;;;;;;;2.10;1.43;;;30.70;46.40;;;;;;5224053;28;20024;-93
2023/09/16 11:39:42;;;;;;;1.40;1.23;;;30.70;91.40;;;;;;5238048;28;20261;-93
2023/09/16 11:42:13;;;;;;;1.35;1.25;;;31.00;99.90;;;;;;5231625;28;20032;-95
2023/09/16 11:44:45;;;;;;;1.40;1.30;;;30.20;1.00;;;;;;5228133;28;20032;-94
2023/09/16 11:47:18;;;;;;;1.40;1.27;;;30.60;20.10;;;;;;5230610;28;20065;-92
2023/09/16 11:49:50;;;;;;;1.30;1.20;;;30.60;10.20;;;;;;5232296;28;20042;-94
2023/09/16 11:52:24;;;;;;;1.58;1.17;;;30.90;47.90;;;;;;5227539;28;20030;-94
2023/09/16 11:54:55;;;;;;;1.85;1.17;;;31.60;99.50;;;;;;5225846;28;20310;-93
2023/09/16 11:57:28;;;;;;;1.30;1.20;;;31.40;99.90;;;;;;5227111;28;20035;-95
2023/09/16 12:00:01;;;;;;;2.55;1.23;;;30.70;28.00;;;;;;5226326;28;20029;-96
2023/09/16 12:02:36;;;;;;;1.42;1.20;;;30.00;1.00;;;;;;5227757;28;20044;-95
2023/09/16 12:05:11;;;;;;;1.30;1.20;;;30.00;99.90;;;;;;5225886;28;20315;-96
2023/09/16 12:07:44;;;;;;;2.05;1.23;;;30.50;99.90;;;;;;5228067;28;20334;-95
2023/09/16 12:10:19;;;;;;;1.50;1.40;;;30.60;65.30;;;;;;5231789;28;20047;-95
2023/09/16 12:12:53;;;;;;;2.40;1.70;;;30.20;56.00;;;;;;5231185;28;20034;-95
2023/09/16 12:18:53;;;;;;;1.50;1.30;;;30.50;1.00;;;;;;5249913;28;20024;-96
2023/09/16 12:21:25;;;;;;;1.30;1.20;;;32.00;13.40;;;;;;5231660;28;20037;-96
2023/09/16 12:23:56;;;;;;;1.27;1.17;;;32.30;42.10;;;;;;5230851;28;20322;-95
2023/09/16 12:26:28;;;;;;;1.30;1.20;;;31.50;99.90;;;;;;5231860;28;20032;-96
2023/09/16 12:29:04;;;;;;;1.20;1.10;;;31.20;10.30;;;;;;5234646;28;20037;-95
2023/09/16 12:31:36;;;;;;;1.55;1.40;;;30.90;27.00;;;;;;5237686;28;20029;-95
2023/09/16 12:34:19;;;;;;;2.08;1.33;;;31.50;1.00;;;;;;5235490;28;20025;-95
2023/09/16 12:36:51;;;;;;;1.80;1.50;;;29.10;1.00;;;;;;5234596;28;20028;-95
2023/09/16 12:39:25;;;;;;;1.63;1.40;;;28.30;1.00;;;;;;5230215;28;20029;-95
2023/09/16 12:42:02;;;;;;;1.88;1.45;;;29.30;1.00;;;;;;5230832;28;20039;-96
2023/09/16 12:44:36;;;;;;;1.50;1.20;;;30.00;1.00;;;;;;5246415;28;20033;-95
2023/09/16 12:47:12;;;;;;;1.23;1.13;;;30.20;1.00;;;;;;5231594;28;20036;-94
2023/09/16 12:49:43;;;;;;;2.72;1.67;;;30.90;99.90;;;;;;5231580;28;20038;-96
2023/09/16 12:52:15;;;;;;;4.90;1.40;;;29.60;99.90;;;;;;5232418;28;20033;-94
2023/09/16 12:54:46;;;;;;;1.83;1.58;;;29.00;97.20;;;;;;5235932;28;20028;-95
2023/09/16 12:57:22;;;;;;;1.40;1.30;;;28.50;98.30;;;;;;5233474;28;20043;-95
2023/09/16 13:00:08;;;;;;;3.07;1.40;;;28.10;1.00;;;;;;5235414;28;20024;-94
2023/09/16 13:02:40;;;;;;;1.50;1.40;;;28.50;1.00;;;;;;5230153;28;20277;-94
2023/09/16 13:05:26;;;;;;;0.98;0.98;;;29.50;99.90;;;;;;5230254;28;20028;-95
2023/09/16 13:07:59;;;;;;;1.50;1.40;;;30.30;99.90;;;;;;5230203;28;20024;-95
2023/09/16 13:10:31;;;;;;;1.77;1.33;;;30.90;99.90;;;;;;5229033;28;20043;-95
2023/09/16 13:13:03;;;;;;;3.42;1.30;;;31.20;99.90;;;;;;5229877;28;20284;-96
2023/09/16 13:15:41;;;;;;;2.58;1.40;;;31.70;99.90;;;;;;5229517;28;20339;-96
2023/09/16 13:18:13;;;;;;;1.58;1.48;;;31.70;1.00;;;;;;5229156;28;20043;-95
2023/09/16 13:20:44;;;;;;;1.60;1.50;;;30.80;1.00;;;;;;5228691;28;20028;-94
2023/09/16 13:23:24;;;;;;;1.65;1.40;;;30.90;77.50;;;;;;5231208;28;20302;-94
2023/09/16 13:26:16;;;;;;;1.40;1.30;;;30.80;99.90;;;;;;5229905;28;20033;-95
2023/09/16 13:28:58;;;;;;;3.00;1.42;;;29.70;1.00;;;;;;5244876;28;20029;-94
2023/09/16 13:31:30;;;;;;;1.65;1.50;;;28.60;99.90;;;;;;5228749;28;20346;-96
2023/09/16 13:34:03;;;;;;;2.38;1.33;;;29.30;1.00;;;;;;5229797;28;20032;-94
2023/09/16 13:36:40;;;;;;;2.38;1.48;;;29.30;99.90;;;;;;5229018;28;20025;-95
2023/09/16 13:39:13;;;;;;;2.22;1.27;;;29.50;1.00;;;;;;5230405;28;20233;-95
2023/09/16 13:41:46;;;;;;;1.65;1.55;;;29.50;1.00;;;;;;5229946;28;20043;-96
2023/09/16 13:44:21;;;;;;;1.33;1.23;;;30.50;99.90;;;;;;5231415;28;20032;-95
2023/09/16 13:46:54;;;;;;;2.63;1.40;;;30.60;99.90;;;;;;5232848;28;20024;-95
2023/09/16 13:49:26;;;;;;;1.45;1.35;;;30.60;1.00;;;;;;5238243;28;20055;-93
2023/09/16 13:52:03;;;;;;;1.98;1.65;;;30.90;99.90;;;;;;5222961;28;20021;-93